Latest Weather Observations for Strathalbyn

IDS60801

Issued at 3:01 am CST Tuesday 26 July 2016 (issued every 30 minutes, with the page automatically refreshed every 10 minutes)

About weather observations | Map of weather stations | Latest weather observations for SA | Other Formats
Station Details ID: 024580 Name: STRATHALBYN RACECOURSE Lat: -35.28 Lon: 138.89 Height: 58.0 m
Data from the previous 72 hours. | See also: Recent months at Strathalbyn
Date/Time
CST
Temp
°C
App
Temp
°C
Dew
Point
°C
Rel
Hum
%
Delta-T
°C
Wind Press
QNH
hPa
Press
MSL
hPa
Rain since
9am
mm
Dir  Spd
km/h
Gust
km/h
Spd
kts
Gust
kts
26/03:00am 7.3 3.4 3.5 77 1.6 W 13 19 7 10 1015.0 1015.1 5.2
26/02:30am 7.6 2.7 4.2 79 1.5 W 19 24 10 13 1015.3 - 5.2
26/02:00am 8.6 2.0 4.2 74 1.9 WSW 28 43 15 23 1015.6 - 4.8
26/01:30am 8.2 3.2 3.5 72 2.0 W 19 26 10 14 1015.6 - 4.8
26/01:00am 8.1 3.8 3.4 72 2.0 W 15 20 8 11 1015.6 - 4.8
26/12:30am 8.2 3.4 2.7 68 2.3 W 17 20 9 11 1015.5 - 4.8
26/12:00am 8.0 3.5 2.3 67 2.4 W 15 20 8 11 1015.4 1015.5 4.8
 
Date/Time
CST
Temp
°C
App
Temp
°C
Dew
Point
°C
Rel
Hum
%
Delta-T
°C
Wind Press
QNH
hPa
Press
MSL
hPa
Rain since
9am
mm
Dir  Spd
km/h
Gust
km/h
Spd
kts
Gust
kts
25/11:30pm 8.0 3.4 1.8 65 2.6 W 15 19 8 10 1015.7 - 4.8
25/11:00pm 8.8 2.9 1.7 61 2.9 W 22 33 12 18 1015.6 - 4.8
25/10:30pm 9.2 2.6 2.1 61 3.0 W 26 41 14 22 1015.3 - 4.8
25/10:00pm 9.0 3.5 1.7 60 3.0 W 20 30 11 16 1015.3 - 4.8
25/09:30pm 9.1 3.7 2.2 62 2.9 W 20 32 11 17 1015.4 - 4.8
25/09:00pm 9.3 3.6 2.6 63 2.8 W 22 33 12 18 1015.2 1015.3 4.8
25/08:30pm 9.0 3.8 2.6 64 2.7 WSW 19 26 10 14 1014.9 - 4.8
25/08:00pm 9.1 4.3 2.7 64 2.7 W 17 22 9 12 1014.5 - 4.8
25/07:30pm 9.6 3.8 2.5 61 3.0 WSW 22 28 12 15 1014.2 - 4.8
25/07:00pm 10.5 3.3 3.1 60 3.2 W 30 43 16 23 1013.7 - 4.8
25/06:30pm 10.9 4.8 4.6 65 2.8 WSW 26 39 14 21 1013.0 - 4.8
25/06:00pm 11.2 4.5 5.5 68 2.6 W 30 44 16 24 1012.5 1012.5 4.8
25/05:37pm 11.2 4.9 5.5 68 2.6 W 28 46 15 25 1012.1 - 4.8
25/05:30pm 11.0 5.5 6.0 71 2.3 W 24 35 13 19 1012.0 - 4.8
25/05:00pm 11.0 4.9 6.4 73 2.2 W 28 39 15 21 1011.8 - 4.8
25/04:30pm 11.2 6.2 8.1 81 1.5 WSW 24 43 13 23 1011.6 - 4.8
25/04:00pm 11.2 6.8 8.8 85 1.2 WSW 22 33 12 18 1011.2 - 4.8
25/03:30pm 11.5 6.4 9.1 85 1.2 WSW 26 43 14 23 1010.5 - 4.4
25/03:16pm 11.5 3.9 8.9 84 1.3 W 39 61 21 33 1010.3 - 4.0
25/03:13pm 11.6 2.9 8.6 82 1.5 W 44 61 24 33 1010.3 - 3.2
25/03:00pm 12.2 5.0 9.2 82 1.5 WNW 37 63 20 34 1010.1 1010.1 2.2
25/02:30pm 12.4 4.6 9.6 83 1.4 WNW 41 59 22 32 1009.2 - 1.2
25/02:00pm 12.2 3.2 8.9 80 1.7 NW 46 69 25 37 1008.8 - 0.2
25/01:30pm 12.7 3.6 9.7 82 1.5 NNW 48 69 26 37 1008.4 - 0.2
25/01:00pm 13.0 2.4 8.5 74 2.2 NNW 54 80 29 43 1008.9 - 0.0
25/12:30pm 12.8 2.1 7.9 72 2.4 NW 54 76 29 41 1009.7 - 0.0
25/12:18pm 12.7 1.4 8.0 73 2.3 NW 57 80 31 43 1009.8 - 0.0
25/12:17pm 12.7 1.5 8.4 75 2.1 WNW 57 80 31 43 1009.8 - 0.0
25/12:00pm 12.5 3.3 8.2 75 2.1 NNW 46 74 25 40 1010.2 1010.2 0.0
25/11:30am 12.6 2.5 7.5 71 2.5 NNW 50 69 27 37 1010.9 - 0.0
25/11:11am 13.0 4.0 6.6 65 3.1 NW 43 65 23 35 1011.5 - 0.0
25/11:09am 13.0 4.0 6.6 65 3.1 WNW 43 57 23 31 1011.6 - 0.0
25/11:00am 13.1 6.4 7.3 68 2.8 NNW 32 50 17 27 1011.8 - 0.0
25/10:30am 12.8 5.8 6.2 64 3.1 NNW 32 50 17 27 1012.4 - 0.0
25/10:13am 12.7 5.7 6.7 67 2.9 NW 33 67 18 36 1012.3 - 0.0
25/10:12am 12.7 4.9 6.7 67 2.9 N 37 67 20 36 1012.4 - 0.0
25/10:08am 12.6 3.5 6.6 67 2.9 N 44 67 24 36 1012.5 - 0.0
25/10:00am 12.5 4.7 6.5 67 2.9 NW 37 56 20 30 1012.8 - 0.0
25/09:53am 12.6 5.5 6.6 67 2.9 NW 33 52 18 28 1012.9 - 0.0
25/09:30am 12.1 5.1 7.0 71 2.5 WNW 33 48 18 26 1013.2 - 0.0
25/09:09am 11.6 4.6 6.7 72 2.3 WNW 33 52 18 28 1013.2 - 0.0
25/09:00am 11.7 4.4 7.2 74 2.2 NW 35 52 19 28 1013.0 1013.0 11.6
25/08:51am 11.5 4.7 7.0 74 2.2 NW 32 50 17 27 1013.0 - 11.6
25/08:30am 11.4 5.0 7.1 75 2.1 NW 30 44 16 24 1013.1 - 11.6
25/08:00am 10.3 5.4 6.8 79 1.7 NW 22 30 12 16 1013.3 - 11.6
25/07:30am 9.9 5.5 6.6 80 1.5 WNW 19 30 10 16 1013.4 - 11.6
25/07:00am 9.8 5.9 7.1 83 1.3 W 17 24 9 13 1013.5 - 11.6
25/06:30am 9.8 5.9 6.9 82 1.4 W 17 26 9 14 1013.5 - 11.6
25/06:00am 9.7 5.4 6.8 82 1.4 WNW 19 26 10 14 1013.5 1013.5 11.4
25/05:30am 9.2 5.5 6.1 81 1.4 W 15 20 8 11 1013.3 - 11.4
25/05:00am 9.8 5.7 6.0 77 1.8 W 17 26 9 14 1013.3 - 11.4
25/04:30am 9.6 5.3 5.2 74 2.0 W 17 22 9 12 1013.3 - 11.4
25/04:00am 9.1 5.0 4.1 71 2.2 W 15 20 8 11 1013.3 - 11.4
25/03:30am 8.8 5.4 4.2 73 2.0 W 11 19 6 10 1013.4 - 11.4
25/03:00am 9.0 4.9 4.2 72 2.1 W 15 20 8 11 1013.5 1013.5 11.4
25/02:30am 9.6 4.6 4.6 71 2.2 W 20 33 11 18 1013.5 - 11.4
25/02:00am 9.6 4.3 5.0 73 2.1 W 22 30 12 16 1013.3 - 11.4
25/01:30am 9.9 3.8 4.9 71 2.3 W 26 37 14 20 1013.2 - 11.4
25/01:00am 9.9 3.4 4.9 71 2.3 W 28 39 15 21 1012.9 - 11.4
25/12:30am 10.0 4.4 5.4 73 2.1 W 24 39 13 21 1012.7 - 11.4
25/12:00am 9.9 4.7 5.5 74 2.0 W 22 35 12 19 1012.5 1012.5 11.4
 
Date/Time
CST
Temp
°C
App
Temp
°C
Dew
Point
°C
Rel
Hum
%
Delta-T
°C
Wind Press
QNH
hPa
Press
MSL
hPa
Rain since
9am
mm
Dir  Spd
km/h
Gust
km/h
Spd
kts
Gust
kts
24/11:30pm 9.8 4.6 5.6 75 1.9 W 22 35 12 19 1012.0 - 11.4
24/11:00pm 10.1 3.8 5.5 73 2.1 W 28 41 15 22 1011.8 - 11.4
24/10:55pm 10.1 3.4 5.5 73 2.1 WSW 30 48 16 26 1011.7 - 11.4
24/10:30pm 9.9 3.4 4.9 71 2.3 WSW 28 41 15 22 1011.2 - 11.4
24/10:13pm 10.0 3.2 5.2 72 2.2 WSW 30 48 16 26 1010.8 - 11.4
24/10:00pm 10.5 2.8 5.5 71 2.3 W 35 50 19 27 1010.6 - 11.4
24/09:37pm 10.5 2.8 5.5 71 2.3 WSW 35 57 19 31 1010.3 - 11.4
24/09:30pm 10.4 2.8 5.6 72 2.2 W 35 48 19 26 1010.2 - 11.4
24/09:11pm 10.3 2.3 5.5 72 2.2 W 37 56 20 30 1010.1 - 11.4
24/09:00pm 10.6 1.2 5.6 71 2.3 W 44 59 24 32 1009.9 1009.9 11.4
24/08:30pm 10.7 1.6 5.9 72 2.2 W 43 67 23 36 1009.5 - 11.4
24/08:00pm 10.7 2.5 6.5 75 2.0 W 39 63 21 34 1009.0 - 11.4
24/07:30pm 10.7 3.3 6.6 76 1.9 W 35 61 19 33 1008.6 - 11.4
24/07:00pm 10.9 1.9 6.5 74 2.1 W 43 61 23 33 1007.9 - 11.4
24/06:30pm 10.6 3.3 7.3 80 1.6 W 35 54 19 29 1007.3 - 11.4
24/06:00pm 10.2 1.2 6.5 78 1.7 W 43 65 23 35 1006.7 1006.7 11.2
24/05:30pm 9.8 0.6 6.2 78 1.7 W 44 67 24 36 1006.4 - 10.8
24/05:00pm 10.4 0.5 6.7 78 1.7 WNW 48 82 26 44 1005.6 - 9.6
24/04:59pm 10.5 0.6 6.6 77 1.8 WNW 48 82 26 44 1005.6 - 9.6
24/04:30pm 10.2 2.3 6.2 76 1.9 WNW 37 63 20 34 1005.4 - 8.8
24/04:00pm 10.2 2.5 5.4 72 2.2 WNW 35 65 19 35 1005.8 - 8.0
24/03:30pm 10.8 3.6 5.8 71 2.3 WNW 33 52 18 28 1005.3 - 7.8
24/03:07pm 10.5 1.7 5.5 71 2.3 WNW 41 59 22 32 1005.8 - 7.8
24/03:00pm 10.9 2.0 5.0 67 2.7 WNW 41 57 22 31 1005.6 1005.6 7.6
24/02:30pm 11.5 3.4 5.2 65 2.9 WNW 37 56 20 30 1005.5 - 7.6
24/02:00pm 10.2 2.9 5.6 73 2.1 W 33 57 18 31 1005.8 - 7.6
24/01:33pm 11.6 3.0 4.6 62 3.2 W 39 57 21 31 1005.3 - 7.4
24/01:30pm 11.7 3.6 5.3 65 3.0 WNW 37 54 20 29 1005.3 - 7.4
24/01:16pm 11.1 3.8 5.4 68 2.6 WNW 33 54 18 29 1005.6 - 7.4
24/01:00pm 9.4 2.2 5.9 79 1.6 WNW 33 46 18 25 1005.8 - 7.4
24/12:47pm 9.2 3.0 6.1 81 1.4 WNW 28 57 15 31 1006.4 - 6.6
24/12:42pm 9.1 1.0 5.3 77 1.7 WNW 37 57 20 31 1006.4 - 6.4
24/12:41pm 9.4 1.0 5.6 77 1.7 NNW 39 57 21 31 1006.4 - 6.4
24/12:40pm 9.4 0.5 5.2 75 1.9 N 41 57 22 31 1006.3 - 6.2
24/12:32pm 10.0 2.4 5.6 74 2.0 NW 35 54 19 29 1006.2 - 5.6
24/12:30pm 10.0 2.6 5.2 72 2.2 WNW 33 50 18 27 1006.2 - 5.6
24/12:17pm 11.2 3.8 6.7 74 2.1 NW 35 54 19 29 1006.2 - 5.6
24/12:09pm 10.1 1.7 5.5 73 2.1 N 39 54 21 29 1006.2 - 5.6
24/12:06pm 9.9 2.4 6.1 77 1.8 WNW 35 48 19 26 1006.4 - 5.6
24/12:00pm 9.8 1.4 5.6 75 1.9 N 39 54 21 29 1006.5 1006.5 5.4
24/11:57am 10.1 1.9 4.9 70 2.3 N 37 54 20 29 1006.2 - 5.4
24/11:41am 9.5 1.3 4.7 72 2.1 NW 37 57 20 31 1006.3 - 5.4
24/11:30am 9.3 2.0 5.3 76 1.8 NW 33 46 18 25 1006.6 - 5.4
24/11:16am 8.8 2.4 5.4 79 1.5 N 28 48 15 26 1006.7 - 5.4
24/11:00am 8.1 2.8 5.2 82 1.3 NNW 22 32 12 17 1007.1 - 5.4
24/10:30am 7.7 0.2 4.7 81 1.3 WNW 33 52 18 28 1007.6 - 4.4
24/10:02am 8.1 -1.3 4.7 79 1.5 WNW 43 61 23 33 1007.3 - 2.4
24/10:00am 8.5 0.0 5.1 79 1.5 N 39 61 21 33 1007.2 - 2.2
24/09:34am 9.6 0.3 6.1 79 1.6 N 44 63 24 34 1005.5 - 0.4
24/09:30am 9.5 -0.6 5.9 78 1.7 N 48 63 26 34 1005.3 - 0.4
24/09:00am 10.0 -0.5 5.6 74 2.0 N 50 72 27 39 1005.4 1005.4 0.8
24/08:40am 10.5 1.1 5.3 70 2.4 N 44 63 24 34 1005.3 - 0.8
24/08:30am 10.3 0.1 5.3 71 2.3 N 48 63 26 34 1005.6 - 0.8
24/08:01am 9.8 1.3 5.2 73 2.1 N 39 57 21 31 1006.2 - 0.8
24/08:00am 9.8 1.3 5.2 73 2.1 N 39 56 21 30 1006.2 - 0.8
24/07:30am 9.0 1.4 5.9 81 1.4 N 35 57 19 31 1006.5 - 0.8
24/07:17am 9.1 1.5 5.8 80 1.5 N 35 54 19 29 1006.7 - 0.8
24/07:00am 9.0 2.3 5.7 80 1.5 N 30 46 16 25 1006.8 - 0.8
24/06:57am 9.2 2.9 5.8 79 1.6 N 28 46 15 25 1006.8 - 0.8
24/06:30am 8.3 4.7 4.9 79 1.5 NNE 13 20 7 11 1007.6 - 0.8
24/06:00am 7.3 3.6 4.3 81 1.3 NNE 13 22 7 12 1008.0 1008.0 0.8
24/05:30am 5.8 2.3 3.3 84 1.0 NNE 11 13 6 7 1008.3 - 0.8
24/05:00am 5.9 2.3 3.2 83 1.1 N 11 15 6 8 1008.6 - 0.8
24/04:30am 6.0 2.5 3.3 83 1.1 N 11 13 6 7 1009.4 - 0.8
24/04:00am 6.3 2.4 3.6 83 1.1 N 13 17 7 9 1009.4 - 0.8
24/03:30am 6.0 2.1 3.5 84 1.1 N 13 17 7 9 1010.3 - 0.8
24/03:00am 6.6 2.1 4.1 84 1.1 N 17 22 9 12 1010.7 1010.7 0.8
24/02:30am 6.9 2.4 4.2 83 1.2 N 17 22 9 12 1011.1 - 0.8
24/02:00am 5.9 2.4 3.7 86 0.9 N 11 13 6 7 1011.7 - 0.8
24/01:30am 5.9 2.8 3.7 86 0.9 N 9 11 5 6 1012.3 - 0.8
24/01:00am 6.3 3.3 4.1 86 0.9 N 9 11 5 6 1012.7 - 0.8
24/12:30am 7.1 3.4 4.6 84 1.1 N 13 15 7 8 1013.1 - 0.8
24/12:00am 7.5 3.9 5.0 84 1.1 N 13 17 7 9 1013.7 1013.7 0.6
 
Date/Time
CST
Temp
°C
App
Temp
°C
Dew
Point
°C
Rel
Hum
%
Delta-T
°C
Wind Press
QNH
hPa
Press
MSL
hPa
Rain since
9am
mm
Dir  Spd
km/h
Gust
km/h
Spd
kts
Gust
kts
23/11:30pm 7.9 3.3 5.5 85 1.1 N 19 26 10 14 1013.8 - 0.6
23/11:00pm 7.3 3.4 5.4 88 0.8 N 15 19 8 10 1014.2 - 0.2
23/10:30pm 5.5 2.4 3.7 88 0.8 N 9 11 5 6 1014.2 - 0.2
23/10:00pm 5.6 2.5 3.4 86 0.9 N 9 11 5 6 1014.2 - 0.2
23/09:30pm 6.3 2.6 4.5 88 0.8 N 13 15 7 8 1014.5 - 0.2
23/09:00pm 6.5 3.2 4.3 86 0.9 N 11 13 6 7 1014.6 1014.7 0.2
23/08:30pm 7.0 4.5 4.7 85 1.0 NNW 7 9 4 5 1014.8 - 0.2
23/08:00pm 7.8 5.6 5.1 83 1.2 N 6 9 3 5 1014.9 - 0.2
23/07:30pm 7.3 4.4 4.6 83 1.2 N 9 13 5 7 1014.9 - 0.2
23/07:00pm 7.1 4.1 4.1 81 1.3 N 9 11 5 6 1014.9 - 0.2
23/06:30pm 8.0 5.4 4.4 78 1.6 N 7 11 4 6 1014.6 - 0.2
23/06:00pm 8.6 5.8 5.0 78 1.6 NW 9 13 5 7 1014.6 1014.7 0.2
23/05:30pm 9.0 5.8 5.2 77 1.7 W 11 13 6 7 1014.7 - 0.2
23/05:00pm 9.4 5.4 5.0 74 2.0 WNW 15 19 8 10 1014.4 - 0.2
23/04:30pm 9.7 4.4 4.9 72 2.2 WNW 22 30 12 16 1014.5 - 0.0
23/04:00pm 10.7 5.9 4.4 65 2.8 WNW 19 26 10 14 1014.4 - 0.0
23/03:30pm 11.6 6.0 3.6 58 3.6 W 22 30 12 16 1014.2 - 0.0
23/03:00pm 12.0 9.1 4.5 60 3.4 WSW 9 17 5 9 1014.0 1014.0 0.0
23/02:30pm 11.4 6.6 4.4 62 3.2 SW 19 26 10 14 1014.1 - 0.0
23/02:00pm 10.8 5.0 4.3 64 2.9 SSW 24 30 13 16 1013.9 - 0.0
23/01:30pm 11.6 6.5 4.1 60 3.4 SSW 20 28 11 15 1013.9 - 0.0
23/01:00pm 11.5 5.5 3.3 57 3.6 SSW 24 32 13 17 1013.8 - 0.0
23/12:30pm 12.3 7.4 5.0 61 3.4 SSW 20 28 11 15 1014.0 - 0.0
23/12:00pm 12.0 6.9 3.0 54 4.0 SW 19 28 10 15 1014.2 1014.3 0.0
23/11:30am 11.8 7.0 2.8 54 3.9 WSW 17 24 9 13 1014.4 - 0.0
23/11:00am 12.4 7.8 3.9 56 3.8 SW 17 24 9 13 1014.4 - 0.0
23/10:30am 11.8 7.2 3.8 58 3.6 SW 17 22 9 12 1014.3 - 0.0
23/10:00am 11.3 6.8 4.3 62 3.2 WSW 17 22 9 12 1014.0 - 0.0
23/09:30am 10.8 6.8 4.9 67 2.7 W 15 24 8 13 1013.9 - 0.0
23/09:00am 9.9 5.9 4.9 71 2.3 W 15 20 8 11 1013.4 1013.4 10.6
23/08:30am 9.1 5.9 4.9 75 1.9 W 11 19 6 10 1012.9 - 10.6
23/08:00am 8.5 4.5 4.7 77 1.7 W 15 19 8 10 1012.5 - 10.6
23/07:30am 8.4 4.7 4.6 77 1.7 W 13 20 7 11 1012.0 - 10.6
23/07:00am 8.6 4.5 4.6 76 1.8 SW 15 24 8 13 1011.3 - 10.6
23/06:30am 8.4 4.7 4.2 75 1.8 WSW 13 19 7 10 1010.9 - 10.6
23/06:00am 8.6 4.2 4.6 76 1.8 W 17 24 9 13 1010.5 1010.5 10.6
23/05:30am 8.7 4.4 5.3 79 1.5 W 17 24 9 13 1009.9 - 10.6
23/05:00am 8.8 4.0 5.4 79 1.5 W 20 28 11 15 1009.4 - 10.6
23/04:30am 9.1 3.9 5.5 78 1.6 W 22 32 12 17 1008.9 - 10.6
23/04:00am 9.2 3.2 5.2 76 1.8 W 26 35 14 19 1008.3 - 10.6
23/03:30am 9.3 3.3 5.1 75 1.9 W 26 39 14 21 1008.0 - 10.6

Other Formats:

Comma delimited format used in spreadsheet applications
http://www.bom.gov.au/fwo/IDS60801/IDS60801.94814.axf

JavaScript Object Notation format (JSON) in row-major order
http://www.bom.gov.au/fwo/IDS60801/IDS60801.94814.json